Time;durP1;ratioP1;P1;durP2;ratioP2;P2;SDS_P1;SDS_P2;PMS_P1;PMS_P2;Temp;Humidity;BMP_temperature;BMP_pressure;BME280_temperature;BME280_humidity;BME280_pressure;Samples;Min_cycle;Max_cycle;Signal;HPM_P1;HPM_P2
2024/02/04 00:01:40;;;;;;;7.70;4.80;;;4.10;99.90;;;;;;4982668;28;20417;-60
2024/02/04 00:04:06;;;;;;;4.77;3.97;;;4.20;99.90;;;;;;4975326;28;20554;-60
2024/02/04 00:06:31;;;;;;;5.70;4.30;;;4.20;99.90;;;;;;4964280;28;20489;-60
2024/02/04 00:08:57;;;;;;;8.87;5.67;;;4.30;99.90;;;;;;4972784;28;20193;-61
2024/02/04 00:11:23;;;;;;;9.30;4.10;;;4.40;99.90;;;;;;4973494;28;20186;-59
2024/02/04 00:13:48;;;;;;;8.73;5.70;;;4.50;99.90;;;;;;4973082;28;20201;-59
2024/02/04 00:16:14;;;;;;;16.80;6.50;;;4.50;99.90;;;;;;4976432;28;20532;-60
2024/02/04 00:18:40;;;;;;;7.87;5.00;;;4.60;99.90;;;;;;4975790;28;20582;-60
2024/02/04 00:21:06;;;;;;;10.70;5.57;;;4.60;99.90;;;;;;4980354;28;20558;-60
2024/02/04 00:23:31;;;;;;;8.90;5.40;;;4.60;99.90;;;;;;4969668;28;20186;-59
2024/02/04 00:25:57;;;;;;;9.90;5.43;;;4.70;99.90;;;;;;4976210;28;20205;-59
2024/02/04 00:28:22;;;;;;;7.57;5.37;;;4.70;99.90;;;;;;4976294;28;20293;-59
2024/02/04 00:30:54;;;;;;;12.53;7.03;;;4.70;99.90;;;;;;4967876;28;20179;-59
2024/02/04 00:33:20;;;;;;;10.97;6.00;;;4.70;99.90;;;;;;4968766;28;20189;-59
2024/02/04 00:35:46;;;;;;;11.13;6.43;;;4.70;99.90;;;;;;4964393;28;20448;-59
2024/02/04 00:38:12;;;;;;;13.00;7.50;;;4.70;99.90;;;;;;4962420;28;20216;-59
2024/02/04 00:40:37;;;;;;;13.43;7.37;;;4.70;99.90;;;;;;4972801;28;20265;-59
2024/02/04 00:43:03;;;;;;;12.00;7.17;;;4.70;99.90;;;;;;4972833;28;20228;-59
2024/02/04 00:45:29;;;;;;;9.83;6.60;;;4.70;99.90;;;;;;4972727;28;20247;-59
2024/02/04 00:47:54;;;;;;;13.97;6.50;;;4.70;99.90;;;;;;4971831;28;20288;-59
2024/02/04 00:50:20;;;;;;;11.60;7.50;;;4.70;99.90;;;;;;4971388;28;20644;-60
2024/02/04 00:52:45;;;;;;;11.00;6.20;;;4.70;99.90;;;;;;4966316;28;20178;-59
2024/02/04 00:55:11;;;;;;;12.67;7.53;;;4.70;99.90;;;;;;4968505;28;20261;-59
2024/02/04 00:57:37;;;;;;;16.47;6.87;;;4.60;99.90;;;;;;4967088;28;20240;-59
2024/02/04 01:00:03;;;;;;;7.77;5.70;;;4.60;99.90;;;;;;4976635;28;20178;-61
2024/02/04 01:02:29;;;;;;;11.07;5.83;;;4.70;99.90;;;;;;4976466;28;20580;-59
2024/02/04 01:04:55;;;;;;;11.47;5.83;;;4.70;99.90;;;;;;4967083;28;20515;-59
2024/02/04 01:07:20;;;;;;;11.50;7.27;;;4.70;99.90;;;;;;4971690;28;20248;-60
2024/02/04 01:09:46;;;;;;;11.53;6.73;;;4.70;99.90;;;;;;4968234;28;20559;-59
2024/02/04 01:12:12;;;;;;;10.90;6.70;;;4.70;99.90;;;;;;4971418;28;20661;-58
2024/02/04 01:14:37;;;;;;;12.57;6.40;;;4.60;99.90;;;;;;4966223;28;20206;-59
2024/02/04 01:17:03;;;;;;;15.93;7.33;;;4.70;99.90;;;;;;4968550;28;20213;-59
2024/02/04 01:19:28;;;;;;;10.40;6.20;;;4.60;99.90;;;;;;4970220;28;20180;-59
2024/02/04 01:21:54;;;;;;;9.63;6.40;;;4.60;99.90;;;;;;4966885;28;20174;-59
2024/02/04 01:24:20;;;;;;;9.23;5.77;;;4.60;99.90;;;;;;4971423;28;20174;-59
2024/02/04 01:26:45;;;;;;;8.50;5.70;;;4.60;99.90;;;;;;4967567;28;20201;-59
2024/02/04 01:29:11;;;;;;;10.13;5.60;;;4.60;99.90;;;;;;4969521;28;20645;-60
2024/02/04 01:31:37;;;;;;;8.90;6.13;;;4.60;99.90;;;;;;4970860;28;20185;-59
2024/02/04 01:34:02;;;;;;;8.10;5.80;;;4.60;99.90;;;;;;4971334;28;20253;-59
2024/02/04 01:36:28;;;;;;;9.83;6.47;;;4.50;99.90;;;;;;4976025;28;20551;-59
2024/02/04 01:38:53;;;;;;;12.63;5.83;;;4.50;99.90;;;;;;4963368;28;20186;-59
2024/02/04 01:41:19;;;;;;;10.30;6.40;;;4.50;99.90;;;;;;4969540;28;20181;-59
2024/02/04 01:43:45;;;;;;;10.40;5.23;;;4.40;99.90;;;;;;4968278;28;20182;-60
2024/02/04 01:46:11;;;;;;;6.33;5.10;;;4.40;99.90;;;;;;4970726;28;20210;-60
2024/02/04 01:48:37;;;;;;;10.03;5.63;;;4.30;99.90;;;;;;4965404;28;20469;-59
2024/02/04 01:51:04;;;;;;;6.70;4.83;;;4.30;99.90;;;;;;4967251;28;20437;-59
2024/02/04 01:53:33;;;;;;;7.50;5.63;;;4.20;99.90;;;;;;4970513;28;20174;-59
2024/02/04 01:55:59;;;;;;;8.43;5.70;;;4.20;99.90;;;;;;4968365;28;20694;-59
2024/02/04 01:58:25;;;;;;;8.50;5.83;;;4.10;99.90;;;;;;4969124;28;20930;-60
2024/02/04 02:00:51;;;;;;;7.90;5.10;;;4.10;99.90;;;;;;4969297;28;20182;-60
2024/02/04 02:03:17;;;;;;;12.00;6.00;;;4.00;99.90;;;;;;4970563;28;20211;-58
2024/02/04 02:05:43;;;;;;;8.00;5.37;;;4.00;99.90;;;;;;4966571;28;20611;-59
2024/02/04 02:08:09;;;;;;;10.63;6.77;;;3.90;99.90;;;;;;4970352;28;20198;-59
2024/02/04 02:10:35;;;;;;;8.67;5.43;;;3.90;99.90;;;;;;4970727;28;20552;-59
2024/02/04 02:13:23;;;;;;;11.10;6.03;;;3.90;99.90;;;;;;4969721;28;20429;-60
2024/02/04 02:15:53;;;;;;;10.10;5.60;;;3.90;99.90;;;;;;4971984;28;20596;-58
2024/02/04 02:18:34;;;;;;;9.77;6.53;;;3.80;99.90;;;;;;4968270;28;20426;-59
2024/02/04 02:21:13;;;;;;;9.73;6.10;;;3.80;99.90;;;;;;4968515;28;20413;-60
2024/02/04 02:24:04;;;;;;;10.03;6.27;;;3.70;99.90;;;;;;4970829;28;20436;-59
2024/02/04 02:26:32;;;;;;;14.33;6.63;;;3.60;99.90;;;;;;4967051;28;20449;-59
2024/02/04 02:28:58;;;;;;;8.90;5.97;;;3.70;99.90;;;;;;4967164;28;21057;-61
2024/02/04 02:31:24;;;;;;;9.00;6.23;;;3.60;99.90;;;;;;4969766;28;21231;-59
2024/02/04 02:33:49;;;;;;;11.07;7.37;;;3.60;99.90;;;;;;4969789;28;20173;-59
2024/02/04 02:36:22;;;;;;;9.20;6.27;;;3.50;99.90;;;;;;4974068;28;20194;-59
2024/02/04 02:39:03;;;;;;;11.27;6.30;;;3.50;99.90;;;;;;4972004;28;20651;-59
2024/02/04 02:41:30;;;;;;;10.23;6.60;;;3.50;99.90;;;;;;4965483;28;20900;-60
2024/02/04 02:43:56;;;;;;;11.27;6.93;;;3.50;99.90;;;;;;4966591;28;21149;-59
2024/02/04 02:46:23;;;;;;;9.93;7.13;;;3.40;99.90;;;;;;4971292;28;20448;-59
2024/02/04 02:48:49;;;;;;;10.00;7.20;;;3.40;99.90;;;;;;4960433;28;20482;-60
2024/02/04 02:51:16;;;;;;;9.83;6.17;;;3.40;99.90;;;;;;4970046;28;20417;-59
2024/02/04 02:53:41;;;;;;;10.43;6.70;;;3.40;99.90;;;;;;4967108;28;20504;-59
2024/02/04 02:56:07;;;;;;;9.70;6.10;;;3.40;99.90;;;;;;4966805;28;20488;-59
2024/02/04 02:58:33;;;;;;;8.70;6.30;;;3.40;99.90;;;;;;4969690;28;20185;-59
2024/02/04 03:00:58;;;;;;;10.23;6.20;;;3.30;99.90;;;;;;4967562;28;20177;-59
2024/02/04 03:03:24;;;;;;;13.00;6.57;;;3.30;99.90;;;;;;4968375;28;20268;-59
2024/02/04 03:05:49;;;;;;;9.73;6.33;;;3.30;99.90;;;;;;4968201;28;20563;-59
2024/02/04 03:08:15;;;;;;;12.00;6.90;;;3.20;99.90;;;;;;4961736;28;20208;-59
2024/02/04 03:10:41;;;;;;;10.47;6.70;;;3.20;99.90;;;;;;4974469;28;20181;-59
2024/02/04 03:13:06;;;;;;;10.43;6.97;;;3.20;99.90;;;;;;4975638;28;20181;-59
2024/02/04 03:15:32;;;;;;;10.17;7.20;;;3.20;99.90;;;;;;4976057;28;20618;-59
2024/02/04 03:17:57;;;;;;;12.90;8.07;;;3.20;99.90;;;;;;4965094;28;20185;-60
2024/02/04 03:20:23;;;;;;;13.90;8.33;;;3.20;99.90;;;;;;4970491;28;20265;-58
2024/02/04 03:22:48;;;;;;;11.90;7.40;;;3.20;99.90;;;;;;4966010;28;20186;-58
2024/02/04 03:25:14;;;;;;;11.73;6.83;;;3.10;99.90;;;;;;4965033;28;20715;-59
2024/02/04 03:27:40;;;;;;;12.90;8.37;;;3.10;99.90;;;;;;4964254;28;20585;-59
2024/02/04 03:30:06;;;;;;;12.73;7.83;;;3.10;99.90;;;;;;4963803;28;20181;-59
2024/02/04 03:32:33;;;;;;;11.70;7.40;;;3.10;99.90;;;;;;4969461;28;20170;-59
2024/02/04 03:35:03;;;;;;;10.37;7.10;;;3.10;99.90;;;;;;4965154;28;20460;-59
2024/02/04 03:37:29;;;;;;;12.90;7.57;;;3.10;99.90;;;;;;4970763;28;20510;-59
2024/02/04 03:39:54;;;;;;;11.93;7.50;;;3.20;99.90;;;;;;4967498;28;20902;-59
2024/02/04 03:42:22;;;;;;;12.50;7.20;;;3.10;99.90;;;;;;4970239;28;20757;-58
2024/02/04 03:44:47;;;;;;;13.03;8.30;;;3.10;99.90;;;;;;4969665;28;20264;-59
2024/02/04 03:47:13;;;;;;;12.70;8.17;;;3.20;99.90;;;;;;4963891;28;20960;-59
2024/02/04 03:49:39;;;;;;;13.17;8.70;;;3.10;99.90;;;;;;4971454;28;20182;-59
2024/02/04 03:52:05;;;;;;;18.57;8.63;;;3.10;99.90;;;;;;4966279;28;20433;-60
2024/02/04 03:54:31;;;;;;;13.93;7.67;;;3.10;99.90;;;;;;4969553;28;20410;-58
2024/02/04 03:56:56;;;;;;;14.37;8.70;;;3.10;99.90;;;;;;4968493;28;20182;-59
2024/02/04 03:59:22;;;;;;;14.77;8.90;;;3.10;99.90;;;;;;4968392;28;20181;-59
2024/02/04 04:01:53;;;;;;;18.53;10.70;;;3.10;99.90;;;;;;4969201;28;20177;-59
2024/02/04 04:04:18;;;;;;;16.30;9.27;;;3.10;99.90;;;;;;4961290;28;20188;-59
2024/02/04 04:06:45;;;;;;;22.13;9.53;;;3.10;99.90;;;;;;4968254;28;20432;-58
2024/02/04 04:09:11;;;;;;;17.20;9.80;;;3.10;99.90;;;;;;4966181;28;20170;-59
2024/02/04 04:11:37;;;;;;;17.83;8.70;;;3.00;99.90;;;;;;4968091;28;20428;-59
2024/02/04 04:14:02;;;;;;;14.10;8.20;;;3.00;99.90;;;;;;4967034;28;20252;-59
2024/02/04 04:16:28;;;;;;;20.90;9.97;;;2.90;99.90;;;;;;4969016;28;20193;-59
2024/02/04 04:18:54;;;;;;;16.70;8.70;;;2.90;99.90;;;;;;4973660;28;20181;-59
2024/02/04 04:21:20;;;;;;;21.50;9.40;;;2.90;99.90;;;;;;4968102;28;20409;-58
2024/02/04 04:23:46;;;;;;;20.93;8.90;;;2.90;99.90;;;;;;4965103;28;20448;-59
2024/02/04 04:26:11;;;;;;;19.17;8.87;;;2.80;99.90;;;;;;4968551;28;20193;-59
2024/02/04 04:28:37;;;;;;;14.60;8.80;;;2.80;99.90;;;;;;4961240;28;20204;-59
2024/02/04 04:31:03;;;;;;;20.40;8.60;;;2.80;99.90;;;;;;4972614;28;20187;-59
2024/02/04 04:33:30;;;;;;;17.27;8.30;;;2.80;99.90;;;;;;4972560;28;20951;-59
2024/02/04 04:35:55;;;;;;;13.60;8.30;;;2.80;99.90;;;;;;4971675;28;20196;-59
2024/02/04 04:38:21;;;;;;;17.90;9.13;;;2.70;99.90;;;;;;4966981;28;20930;-60
2024/02/04 04:40:47;;;;;;;17.90;8.80;;;2.70;99.90;;;;;;4965248;28;20531;-59
2024/02/04 04:43:13;;;;;;;18.10;8.10;;;2.70;99.90;;;;;;4972102;28;20169;-58
2024/02/04 04:45:38;;;;;;;18.70;8.80;;;2.70;99.90;;;;;;4967554;28;20283;-59
2024/02/04 04:48:04;;;;;;;19.63;8.90;;;2.70;99.90;;;;;;4963870;28;20189;-59
2024/02/04 04:50:30;;;;;;;17.70;8.93;;;2.70;99.90;;;;;;4974309;28;20200;-60
2024/02/04 04:52:55;;;;;;;13.77;7.77;;;2.70;99.90;;;;;;4980931;28;20923;-59
2024/02/04 04:55:21;;;;;;;12.80;7.90;;;2.60;99.90;;;;;;4968733;28;20204;-60
2024/02/04 04:57:47;;;;;;;17.00;7.87;;;2.70;99.90;;;;;;4968069;28;20189;-59
2024/02/04 05:00:13;;;;;;;19.07;7.63;;;2.60;99.90;;;;;;4972225;28;20173;-59
2024/02/04 05:02:43;;;;;;;13.70;8.03;;;2.60;99.90;;;;;;4966788;28;20511;-59
2024/02/04 05:05:10;;;;;;;15.00;8.00;;;2.60;99.90;;;;;;4971745;28;20547;-59
2024/02/04 05:07:36;;;;;;;13.43;7.70;;;2.60;99.90;;;;;;4971773;28;20547;-59
2024/02/04 05:10:02;;;;;;;18.20;7.97;;;2.60;99.90;;;;;;4972054;28;20852;-59
2024/02/04 05:12:27;;;;;;;16.10;8.60;;;2.60;99.90;;;;;;4971699;28;20173;-59
2024/02/04 05:14:53;;;;;;;13.63;7.50;;;2.60;99.90;;;;;;4969761;28;20578;-59
2024/02/04 05:17:18;;;;;;;17.27;7.67;;;2.60;99.90;;;;;;4974167;28;20674;-58
2024/02/04 05:19:44;;;;;;;12.00;7.10;;;2.60;99.90;;;;;;4964430;28;20208;-59
2024/02/04 05:22:10;;;;;;;14.50;7.10;;;2.60;99.90;;;;;;4971005;28;20185;-59
2024/02/04 05:24:35;;;;;;;13.87;7.33;;;2.60;99.90;;;;;;4976450;28;20169;-57
2024/02/04 05:27:01;;;;;;;14.50;7.13;;;2.70;99.90;;;;;;4977131;28;20260;-59
2024/02/04 05:29:27;;;;;;;14.07;7.60;;;2.70;99.90;;;;;;4970368;28;20317;-59
2024/02/04 05:31:52;;;;;;;11.77;6.80;;;2.70;99.90;;;;;;4968049;28;20193;-57
2024/02/04 05:34:18;;;;;;;15.17;6.03;;;2.80;99.90;;;;;;4971886;28;20173;-59
2024/02/04 05:36:43;;;;;;;12.63;6.83;;;2.80;99.90;;;;;;4970011;28;20713;-60
2024/02/04 05:39:14;;;;;;;18.73;10.20;;;2.80;99.90;;;;;;4971366;28;20196;-59
2024/02/04 05:41:40;;;;;;;12.33;6.53;;;2.80;99.90;;;;;;4971826;28;20166;-59
2024/02/04 05:44:06;;;;;;;15.10;6.77;;;2.80;99.90;;;;;;4967926;28;20501;-59
2024/02/04 05:46:32;;;;;;;13.93;6.87;;;2.80;99.90;;;;;;4970576;28;20437;-59
2024/02/04 05:48:58;;;;;;;13.87;7.40;;;2.90;99.90;;;;;;4971321;28;20233;-59
2024/02/04 05:51:23;;;;;;;10.37;7.03;;;2.90;99.90;;;;;;4966108;28;20457;-60
2024/02/04 05:53:49;;;;;;;10.77;6.47;;;2.90;99.90;;;;;;4971367;28;20555;-59
2024/02/04 05:56:14;;;;;;;10.10;6.30;;;2.90;99.90;;;;;;4968461;28;20193;-58
2024/02/04 05:58:40;;;;;;;10.30;6.30;;;2.90;99.90;;;;;;4974250;28;20603;-59
2024/02/04 06:01:06;;;;;;;11.90;5.93;;;2.90;99.90;;;;;;4978497;28;20186;-59
2024/02/04 06:03:31;;;;;;;9.50;6.17;;;2.90;99.90;;;;;;4970008;28;20205;-59
2024/02/04 06:05:57;;;;;;;8.43;5.60;;;2.90;99.90;;;;;;4970363;28;20746;-59
2024/02/04 06:08:23;;;;;;;10.60;5.27;;;2.90;99.90;;;;;;4971651;28;20292;-59
2024/02/04 06:10:48;;;;;;;9.27;5.20;;;2.90;99.90;;;;;;4960997;28;20654;-61
2024/02/04 06:13:14;;;;;;;7.83;5.00;;;2.90;99.90;;;;;;4963134;28;20227;-59
2024/02/04 06:15:40;;;;;;;7.87;4.60;;;2.90;99.90;;;;;;4968524;28;20205;-59
2024/02/04 06:18:05;;;;;;;9.53;4.27;;;2.90;99.90;;;;;;4970059;28;20190;-60
2024/02/04 06:20:31;;;;;;;5.73;3.70;;;2.90;99.90;;;;;;4968847;28;20188;-59
2024/02/04 06:22:57;;;;;;;5.53;3.87;;;2.90;99.90;;;;;;4964976;28;20688;-59
2024/02/04 06:25:23;;;;;;;4.77;3.90;;;2.90;99.90;;;;;;4968700;28;20204;-59
2024/02/04 06:27:49;;;;;;;5.23;3.40;;;2.90;99.90;;;;;;4972166;28;20468;-61
2024/02/04 06:30:15;;;;;;;4.40;3.00;;;3.00;99.90;;;;;;4967872;28;20197;-60
2024/02/04 06:32:41;;;;;;;3.70;2.93;;;3.00;99.90;;;;;;4968258;28;20189;-59
2024/02/04 06:35:07;;;;;;;3.60;2.80;;;3.00;99.90;;;;;;4974462;28;20446;-60
2024/02/04 06:37:32;;;;;;;3.70;2.73;;;3.00;99.90;;;;;;4954907;28;20248;-61
2024/02/04 06:39:58;;;;;;;3.67;3.10;;;3.00;99.90;;;;;;4970807;28;20532;-60
2024/02/04 06:42:23;;;;;;;3.40;3.10;;;3.00;99.90;;;;;;4960152;28;20187;-61
2024/02/04 06:44:49;;;;;;;3.10;2.70;;;3.00;99.90;;;;;;4967479;28;20189;-62
2024/02/04 06:47:14;;;;;;;10.50;2.80;;;3.10;99.90;;;;;;4963866;28;20284;-61
2024/02/04 06:49:44;;;;;;;6.10;3.20;;;3.10;99.90;;;;;;4971160;28;20209;-62
2024/02/04 06:52:09;;;;;;;6.30;2.97;;;3.10;99.90;;;;;;4953271;28;20288;-61
2024/02/04 06:54:35;;;;;;;3.90;2.87;;;3.10;99.90;;;;;;4963726;28;21019;-61
2024/02/04 06:57:00;;;;;;;7.37;3.17;;;3.10;99.90;;;;;;4971231;28;20180;-61
2024/02/04 06:59:26;;;;;;;5.60;3.50;;;3.10;99.90;;;;;;4975340;28;20201;-61
2024/02/04 07:01:53;;;;;;;5.20;3.13;;;3.20;99.90;;;;;;4960901;28;20186;-61
2024/02/04 07:04:21;;;;;;;3.87;3.10;;;3.20;99.90;;;;;;4960294;28;20185;-62
2024/02/04 07:06:47;;;;;;;3.80;3.07;;;3.20;99.90;;;;;;4960869;28;21038;-61
2024/02/04 07:09:13;;;;;;;3.63;3.10;;;3.20;99.90;;;;;;4959597;28;20996;-61
2024/02/04 07:11:39;;;;;;;8.53;3.30;;;3.20;99.90;;;;;;4964596;28;20452;-61
2024/02/04 07:14:06;;;;;;;6.50;3.20;;;3.20;99.90;;;;;;4965133;28;20220;-61
2024/02/04 07:16:31;;;;;;;5.53;3.07;;;3.20;99.90;;;;;;4961800;28;20559;-62
2024/02/04 07:18:57;;;;;;;4.13;3.30;;;3.20;99.90;;;;;;4965620;28;20439;-60
2024/02/04 07:21:23;;;;;;;4.40;3.17;;;3.20;99.90;;;;;;4961619;28;20170;-60
2024/02/04 07:23:48;;;;;;;3.80;3.10;;;3.20;99.90;;;;;;4964133;28;20631;-61
2024/02/04 07:26:14;;;;;;;5.20;3.30;;;3.20;99.90;;;;;;4961963;28;20205;-61
2024/02/04 07:28:39;;;;;;;5.87;3.07;;;3.30;99.90;;;;;;4967306;28;20197;-61
2024/02/04 07:31:05;;;;;;;4.30;2.93;;;3.30;99.90;;;;;;4958209;28;20205;-61
2024/02/04 07:33:31;;;;;;;2.93;2.60;;;3.30;99.90;;;;;;4960427;28;20179;-60
2024/02/04 07:35:56;;;;;;;8.50;3.10;;;3.30;99.90;;;;;;4962442;28;20233;-61
2024/02/04 07:38:22;;;;;;;5.03;3.67;;;3.30;99.90;;;;;;4967350;28;21210;-61
2024/02/04 07:40:47;;;;;;;5.13;3.23;;;3.30;99.90;;;;;;4964854;28;20244;-60
2024/02/04 07:43:13;;;;;;;3.67;3.23;;;3.30;99.90;;;;;;4960478;28;20182;-61
2024/02/04 07:45:38;;;;;;;7.10;3.20;;;3.30;99.90;;;;;;4960454;28;20284;-61
2024/02/04 07:48:04;;;;;;;4.30;3.03;;;3.30;99.90;;;;;;4964475;28;20214;-62
2024/02/04 07:50:30;;;;;;;9.80;3.17;;;3.40;99.90;;;;;;4957738;28;20273;-61
2024/02/04 07:52:56;;;;;;;4.07;3.00;;;3.40;99.90;;;;;;4954678;28;20790;-61
2024/02/04 07:55:21;;;;;;;7.30;3.27;;;3.40;99.90;;;;;;4964616;28;20597;-62
2024/02/04 07:57:47;;;;;;;4.97;3.67;;;3.40;99.90;;;;;;4964744;28;20197;-61
2024/02/04 08:00:13;;;;;;;5.27;3.00;;;3.40;99.90;;;;;;4969733;28;20234;-61
2024/02/04 08:02:39;;;;;;;3.90;3.07;;;3.40;99.90;;;;;;4972302;28;20240;-62
2024/02/04 08:05:05;;;;;;;4.53;3.17;;;3.50;99.90;;;;;;4975499;28;20447;-61
2024/02/04 08:07:31;;;;;;;4.33;3.20;;;3.50;99.90;;;;;;4975569;28;20834;-61
2024/02/04 08:09:57;;;;;;;3.60;2.80;;;3.50;99.90;;;;;;4975785;28;20436;-60
2024/02/04 08:12:23;;;;;;;5.93;3.27;;;3.50;99.90;;;;;;4973071;28;20241;-61
2024/02/04 08:14:49;;;;;;;7.20;2.97;;;3.50;99.90;;;;;;4976340;28;20516;-62
2024/02/04 08:17:15;;;;;;;3.70;2.43;;;3.50;99.90;;;;;;4970147;28;20472;-62
2024/02/04 08:19:41;;;;;;;7.40;2.50;;;3.60;99.90;;;;;;4973855;28;20421;-60
2024/02/04 08:22:07;;;;;;;3.53;3.23;;;3.60;99.90;;;;;;4977557;28;20192;-61
2024/02/04 08:24:33;;;;;;;2.63;2.40;;;3.60;99.90;;;;;;4973080;28;20831;-60
2024/02/04 08:26:59;;;;;;;3.90;3.07;;;3.60;99.90;;;;;;4973861;28;20719;-61
2024/02/04 08:29:25;;;;;;;3.40;3.10;;;3.60;99.90;;;;;;4976105;28;20429;-60
2024/02/04 08:31:52;;;;;;;5.43;2.53;;;3.70;99.90;;;;;;4978973;28;20606;-61
2024/02/04 08:34:20;;;;;;;3.10;2.77;;;3.70;99.90;;;;;;4976505;28;20178;-61
2024/02/04 08:36:45;;;;;;;5.20;3.00;;;3.70;99.90;;;;;;4971602;28;21037;-61
2024/02/04 08:39:11;;;;;;;4.73;3.33;;;3.80;99.90;;;;;;4970663;28;20464;-61
2024/02/04 08:41:37;;;;;;;5.07;2.90;;;3.80;99.90;;;;;;4971571;28;20213;-61
2024/02/04 08:44:02;;;;;;;4.57;3.10;;;3.80;99.90;;;;;;4972179;28;20280;-61
2024/02/04 08:46:28;;;;;;;4.60;2.10;;;3.90;99.90;;;;;;4970118;28;20268;-61
2024/02/04 08:48:54;;;;;;;5.97;2.90;;;3.90;99.90;;;;;;4970269;28;20688;-64
2024/02/04 08:51:19;;;;;;;3.67;2.37;;;3.90;99.90;;;;;;4966984;28;20181;-62
2024/02/04 08:53:45;;;;;;;3.53;2.57;;;3.90;99.90;;;;;;4967808;28;20247;-62
2024/02/04 08:56:11;;;;;;;2.63;2.37;;;4.00;99.90;;;;;;4975097;28;20202;-60
2024/02/04 08:58:37;;;;;;;2.37;2.17;;;4.00;99.90;;;;;;4966745;28;20193;-60
2024/02/04 09:01:06;;;;;;;2.50;2.27;;;4.10;99.90;;;;;;4968295;28;20182;-61
2024/02/04 09:03:33;;;;;;;3.20;2.60;;;4.20;99.90;;;;;;4963819;28;20457;-61
2024/02/04 09:05:59;;;;;;;2.80;2.27;;;4.20;99.90;;;;;;4967106;28;20543;-61
2024/02/04 09:08:25;;;;;;;3.47;2.57;;;4.30;99.90;;;;;;4968335;28;20551;-61
2024/02/04 09:10:52;;;;;;;3.30;2.80;;;4.30;99.90;;;;;;4970103;28;20421;-60
2024/02/04 09:13:18;;;;;;;6.90;3.00;;;4.30;99.90;;;;;;4965641;28;20441;-60
2024/02/04 09:15:43;;;;;;;3.60;2.17;;;4.40;99.90;;;;;;4967179;28;20465;-60
2024/02/04 09:18:09;;;;;;;3.30;2.30;;;4.40;99.90;;;;;;4963787;28;20931;-60
2024/02/04 09:20:34;;;;;;;4.93;2.13;;;4.40;99.90;;;;;;4963206;28;20564;-61
2024/02/04 09:23:00;;;;;;;2.17;1.90;;;4.40;99.90;;;;;;4970709;28;20189;-60
2024/02/04 09:25:26;;;;;;;1.87;1.77;;;4.40;99.90;;;;;;4968073;28;20221;-61
2024/02/04 09:27:51;;;;;;;4.60;2.00;;;4.50;99.90;;;;;;4965137;28;20580;-61
2024/02/04 09:30:17;;;;;;;2.37;2.17;;;4.50;99.90;;;;;;4968049;28;20265;-61
2024/02/04 09:32:42;;;;;;;2.03;1.83;;;4.60;99.90;;;;;;4967615;28;20589;-61
2024/02/04 09:35:09;;;;;;;5.03;2.20;;;4.60;99.90;;;;;;4965940;28;20657;-60
2024/02/04 09:37:35;;;;;;;2.93;2.13;;;4.70;99.90;;;;;;4966672;28;20185;-61
2024/02/04 09:40:01;;;;;;;3.53;2.00;;;4.80;99.90;;;;;;4965843;28;20500;-61
2024/02/04 09:42:28;;;;;;;2.47;2.27;;;4.90;99.90;;;;;;4969977;28;20441;-61
2024/02/04 09:44:53;;;;;;;2.30;2.10;;;5.00;99.90;;;;;;4970164;28;20221;-60
2024/02/04 09:47:20;;;;;;;5.83;1.73;;;5.00;99.90;;;;;;4961984;28;20461;-61
2024/02/04 09:49:46;;;;;;;5.10;2.70;;;5.00;99.90;;;;;;4971397;28;20261;-61
2024/02/04 09:52:13;;;;;;;2.57;1.70;;;5.00;99.90;;;;;;4968258;28;20563;-61
2024/02/04 09:54:50;;;;;;;2.80;1.43;;;5.10;99.90;;;;;;4970660;28;20181;-61
2024/02/04 09:57:17;;;;;;;2.40;1.50;;;5.10;99.90;;;;;;4966456;28;20432;-61
2024/02/04 09:59:47;;;;;;;1.90;1.30;;;5.20;99.90;;;;;;4963964;28;20476;-61
2024/02/04 10:02:13;;;;;;;1.40;1.30;;;5.30;99.90;;;;;;4977831;28;20449;-60
2024/02/04 10:04:38;;;;;;;1.53;1.43;;;5.40;99.90;;;;;;4965055;28;20536;-58
2024/02/04 10:07:04;;;;;;;2.30;1.70;;;5.40;99.90;;;;;;4965194;28;20527;-58
2024/02/04 10:09:31;;;;;;;2.47;1.60;;;5.50;99.90;;;;;;4965740;28;20205;-58
2024/02/04 10:11:57;;;;;;;1.97;1.40;;;5.60;99.90;;;;;;4965259;28;20182;-60
2024/02/04 10:14:23;;;;;;;3.30;2.37;;;5.70;99.90;;;;;;4968588;28;20433;-61
2024/02/04 10:16:50;;;;;;;10.17;2.13;;;5.80;99.90;;;;;;4964246;28;20953;-60
2024/02/04 10:19:15;;;;;;;2.13;1.63;;;5.80;99.90;;;;;;4963388;28;20432;-59
2024/02/04 10:21:41;;;;;;;1.50;1.40;;;5.90;99.90;;;;;;4966630;28;20444;-60
2024/02/04 10:24:07;;;;;;;7.37;2.40;;;5.90;99.90;;;;;;4964026;28;20182;-60
2024/02/04 10:26:37;;;;;;;1.63;1.53;;;5.90;99.90;;;;;;4962898;28;20210;-59
2024/02/04 10:29:03;;;;;;;3.63;1.73;;;6.00;99.90;;;;;;4958678;28;21026;-60
2024/02/04 10:31:29;;;;;;;2.63;2.20;;;6.00;99.90;;;;;;4961599;28;20487;-60
2024/02/04 10:33:56;;;;;;;5.70;1.40;;;6.10;99.90;;;;;;4962793;28;20441;-59
2024/02/04 10:36:21;;;;;;;1.80;1.57;;;6.20;99.90;;;;;;4962956;28;20452;-59
2024/02/04 10:38:48;;;;;;;2.37;1.83;;;6.20;99.90;;;;;;4960872;28;20489;-61
2024/02/04 10:41:17;;;;;;;3.33;2.17;;;6.20;99.90;;;;;;4971057;28;20178;-61
2024/02/04 10:43:44;;;;;;;1.83;1.47;;;6.20;99.90;;;;;;4969605;28;20467;-61
2024/02/04 10:46:16;;;;;;;2.53;1.77;;;6.40;99.90;;;;;;4968235;28;20472;-60
2024/02/04 10:48:44;;;;;;;1.90;1.73;;;6.50;99.90;;;;;;4964279;28;20469;-61
2024/02/04 10:51:14;;;;;;;1.63;1.53;;;6.60;99.90;;;;;;4966395;28;20432;-62
2024/02/04 10:53:44;;;;;;;2.30;2.10;;;6.60;99.90;;;;;;4970535;28;20412;-60
2024/02/04 10:56:29;;;;;;;2.20;2.00;;;6.60;99.90;;;;;;4968841;28;20432;-60
2024/02/04 10:58:56;;;;;;;6.50;2.50;;;6.50;99.90;;;;;;4964754;28;20484;-60
2024/02/04 11:01:22;;;;;;;2.37;2.17;;;6.50;99.90;;;;;;4969159;28;20444;-61
2024/02/04 11:03:50;;;;;;;1.60;1.50;;;6.50;99.90;;;;;;4966914;28;20468;-61
2024/02/04 11:06:16;;;;;;;2.60;2.27;;;6.70;99.90;;;;;;4962783;28;20469;-61
2024/02/04 11:08:43;;;;;;;2.73;1.60;;;6.80;99.90;;;;;;4965374;28;20843;-61
2024/02/04 11:11:09;;;;;;;3.10;1.50;;;7.00;99.90;;;;;;4961258;28;20979;-60
2024/02/04 11:13:36;;;;;;;2.07;1.17;;;7.10;99.90;;;;;;4959255;28;20941;-61
2024/02/04 11:16:10;;;;;;;3.77;1.37;;;7.10;99.90;;;;;;4958103;28;20463;-60
2024/02/04 11:18:56;;;;;;;2.17;1.40;;;7.20;99.90;;;;;;4959779;28;20531;-61
2024/02/04 11:21:28;;;;;;;1.93;1.53;;;7.40;99.90;;;;;;4957693;28;21010;-60
2024/02/04 11:24:39;;;;;;;1.63;1.50;;;7.50;99.90;;;;;;4957487;28;20493;-60
2024/02/04 11:27:04;;;;;;;1.50;1.40;;;7.50;99.90;;;;;;4961985;28;20437;-60
2024/02/04 11:29:30;;;;;;;1.90;1.20;;;7.50;99.90;;;;;;4961216;28;20442;-57
2024/02/04 11:31:56;;;;;;;5.27;1.60;;;7.60;99.90;;;;;;4962201;28;20178;-58
2024/02/04 11:34:23;;;;;;;1.77;1.57;;;7.80;99.90;;;;;;4959386;28;20190;-58
2024/02/04 11:36:49;;;;;;;2.03;1.33;;;7.90;99.90;;;;;;4955763;28;20452;-58
2024/02/04 11:39:21;;;;;;;2.07;1.20;;;7.90;99.90;;;;;;4961917;28;20974;-60
2024/02/04 11:41:47;;;;;;;4.53;1.60;;;8.00;99.90;;;;;;4958257;28;20264;-59
2024/02/04 11:44:26;;;;;;;1.67;1.27;;;8.20;99.90;;;;;;4961721;28;20441;-59
2024/02/04 11:46:54;;;;;;;1.93;1.20;;;8.40;99.90;;;;;;4952998;28;20457;-57
2024/02/04 11:49:25;;;;;;;2.27;1.17;;;8.60;99.90;;;;;;4960673;28;20527;-60
2024/02/04 11:51:51;;;;;;;2.53;1.23;;;8.80;99.90;;;;;;4961388;28;20847;-61
2024/02/04 11:54:21;;;;;;;1.60;1.13;;;9.00;99.90;;;;;;4961547;28;20432;-60
2024/02/04 11:56:53;;;;;;;1.07;0.97;;;9.20;99.90;;;;;;4962856;28;20471;-60
2024/02/04 11:59:24;;;;;;;1.30;1.20;;;9.30;99.90;;;;;;4954585;28;20433;-60
2024/02/04 12:01:53;;;;;;;2.30;1.50;;;9.30;99.90;;;;;;4960798;28;20443;-61
2024/02/04 12:04:21;;;;;;;2.00;1.30;;;9.30;99.90;;;;;;4957897;28;20425;-61
2024/02/04 12:06:47;;;;;;;1.27;1.17;;;9.30;99.90;;;;;;4961001;28;20518;-61
2024/02/04 12:09:18;;;;;;;1.43;1.33;;;9.30;99.90;;;;;;4961196;28;20460;-61
2024/02/04 12:11:44;;;;;;;2.33;1.37;;;9.30;99.90;;;;;;4964969;28;20805;-62
2024/02/04 12:14:10;;;;;;;1.20;1.10;;;9.40;99.90;;;;;;4957433;28;20481;-61
2024/02/04 12:16:36;;;;;;;4.67;1.50;;;9.50;99.90;;;;;;4964043;28;20459;-62
2024/02/04 12:19:05;;;;;;;2.30;1.47;;;9.70;99.90;;;;;;4964824;28;20436;-62
2024/02/04 12:21:32;;;;;;;2.57;1.40;;;9.90;99.90;;;;;;4957759;28;20178;-61
2024/02/04 12:23:59;;;;;;;1.40;1.30;;;10.10;99.90;;;;;;4965494;28;20802;-62
2024/02/04 12:26:25;;;;;;;2.50;2.03;;;10.10;99.90;;;;;;4963687;28;21011;-61
2024/02/04 12:28:51;;;;;;;1.33;1.23;;;10.00;99.90;;;;;;4959048;28;20476;-61
2024/02/04 12:31:18;;;;;;;1.20;1.10;;;10.00;99.90;;;;;;4962654;28;20425;-61
2024/02/04 12:33:54;;;;;;;1.30;1.20;;;10.00;99.90;;;;;;4961792;28;21111;-58
2024/02/04 12:36:20;;;;;;;2.57;0.90;;;10.00;99.90;;;;;;4956085;28;21176;-61
2024/02/04 12:38:54;;;;;;;1.20;1.10;;;10.10;99.90;;;;;;4955626;28;20440;-59
2024/02/04 12:41:20;;;;;;;4.60;1.17;;;10.30;99.90;;;;;;4956500;28;20604;-61
2024/02/04 12:43:58;;;;;;;6.43;1.30;;;10.50;99.90;;;;;;4959292;28;20527;-61
2024/02/04 12:46:23;;;;;;;1.03;1.03;;;10.60;99.90;;;;;;4958086;28;20472;-60
2024/02/04 12:48:56;;;;;;;5.90;1.37;;;10.80;99.90;;;;;;4957210;28;20895;-61
2024/02/04 12:51:33;;;;;;;1.13;1.03;;;11.00;99.30;;;;;;4961014;28;20233;-61